Dobrodošli na spletni strani vremenske postaje Senovo. Vse informacije so informativnega značaja, saj vremenska postaja ni del državne mreže meteoroloških postaj. AKTUALNIH OBVESTIL NI.


Sneg/Led Od: 23-02-2018 00:00 Do: 23:59 Opozorilo za: Sneg/Led Stopnja: Rumena info button

Pogled proti Armezu več informacij Pogled proti Armezu


Lisca več informacij Lisca


Radar strel več informacij blitzortung!


opozorilo za sneg/led več informacij rain snow radar


Obiščite še:

Template documentation
and downloads

And another site



Weather Underground, zgodovina - Tekstovno

Dnevni povzetek za December 14, 2017 Enote:  Metrično    Angleško   Obe
« Predhodni Dan
Naslednji Dan »
Dnevni Tedenski Mesečni Letni Po meri
  Višja: Nižja: Povprečje:
Temperatura: -17.8 °C -17.6 °C -14.5 °C
Točka rosišča: -17.8 °C -18.1 °C -15.8 °C
Vlažnost: Humidity % 66 % 86 %
Hitrost vetra: 0 km/h 0 km/h 4.5 km/h
Sunki vetra: 0 km/h - -
Veter:- - WSW
Zračni tlak: 0 hPa 33856.6 hPa -
Padavine: 7.62 mm    
Historical Graphs
 
 
Tabelarni podarki za December 14, 2017
Čas Temperatura Točka rosišča Zračni tlak Veter Hitrost vetra Sunki vetra Vlažnost Intenziteta padavin (urna)
-17.8 °C -17.8 °C 0 hPa Calm     Humidity % 0 mm
00:01 -17.4 °C -17.9 °C 34164.7 hPa Calm     93 % 0 mm
00:06 -17.4 °C -18 °C 34164.7 hPa SSW 0.8 km/h 6.4 km/h 93 % 0 mm
00:11 -17.5 °C -18.1 °C 34164.7 hPa SSW 1 km/h 6.4 km/h 93 % 0 mm
00:21 -17.6 °C -18.1 °C 34164.7 hPa Calm     93 % 0 mm
00:31 -17.5 °C -18.1 °C 34164.7 hPa WNW 0.5 km/h 6.4 km/h 93 % 0 mm
00:36 -17.4 °C -18 °C 34164.7 hPa WNW 0.5 km/h 6.4 km/h 93 % 0 mm
00:41 -17.4 °C -17.9 °C 34164.7 hPa Calm     93 % 0 mm
00:46 -17.4 °C -17.9 °C 34164.7 hPa Calm   5.1 km/h 94 % 0 mm
00:51 -17.3 °C -17.8 °C 34164.7 hPa SSW 0.8 km/h 6.9 km/h 94 % 0 mm
00:56 -17.3 °C -17.7 °C 34164.7 hPa SSW 1.3 km/h 6.9 km/h 94 % 0 mm
01:01 -17.3 °C -17.7 °C 34164.7 hPa SSW 1 km/h 5.1 km/h 94 % 0 mm
01:06 -17.3 °C -17.7 °C 34164.7 hPa SW 0.5 km/h 5.1 km/h 94 % 0 mm
01:11 -17.2 °C -17.8 °C 34164.7 hPa SW 1 km/h 5.6 km/h 93 % 0 mm
01:16 -17.2 °C -17.7 °C 34164.7 hPa South 3.1 km/h 6.9 km/h 94 % 0 mm
01:21 -17.2 °C -17.7 °C 34164.7 hPa SSE 3.7 km/h 8 km/h 94 % 0 mm
01:26 -17.2 °C -17.7 °C 34164.7 hPa South 3.1 km/h 11.1 km/h 94 % 0 mm
01:31 -17.2 °C -17.7 °C 34130.9 hPa South 5 km/h 11.1 km/h 94 % 0 mm
01:36 -17.2 °C -17.7 °C 34130.9 hPa South 6 km/h 9.8 km/h 94 % 0 mm
01:41 -17.2 °C -17.7 °C 34130.9 hPa South 6.3 km/h 9.8 km/h 94 % 0 mm
01:46 -17.2 °C -17.7 °C 34130.9 hPa South 4.2 km/h 9.8 km/h 94 % 0 mm
01:51 -17.2 °C -17.7 °C 34130.9 hPa SSE 0.8 km/h 5.6 km/h 94 % 0 mm
01:56 -17.2 °C -17.7 °C 34130.9 hPa SE 3.4 km/h 12.2 km/h 94 % 0 mm
02:01 -17.2 °C -17.7 °C 34130.9 hPa SE 5.5 km/h 12.2 km/h 94 % 0 mm
02:11 -17.2 °C -17.7 °C 34130.9 hPa SSE 4.3 km/h 7.6 km/h 94 % 0 mm
02:16 -17.2 °C -17.7 °C 34097 hPa SSE 2.1 km/h 7.6 km/h 94 % 0 mm
02:26 -17.2 °C -17.7 °C 34097 hPa SW 1.3 km/h 5.6 km/h 94 % 0 mm
02:31 -17.2 °C -17.7 °C 34097 hPa SW 0.8 km/h 5.6 km/h 94 % 0 mm
02:36 -17.2 °C -17.7 °C 34097 hPa SE 2.3 km/h 9.3 km/h 94 % 0 mm
02:41 -17.2 °C -17.7 °C 34097 hPa SE 5 km/h 9.3 km/h 94 % 0 mm
02:46 -17.2 °C -17.7 °C 34097 hPa SSE 6 km/h 12.2 km/h 94 % 0 mm
02:51 -17.2 °C -17.7 °C 34097 hPa South 5 km/h 12.2 km/h 94 % 0 mm
02:56 -17.3 °C -17.7 °C 34097 hPa SW 1.8 km/h 6.4 km/h 95 % 0 mm
03:01 -17.3 °C -17.7 °C 34097 hPa SW 0.3 km/h 4.2 km/h 95 % 0 mm
03:06 -17.3 °C -17.7 °C 34097 hPa SW 1 km/h 6.4 km/h 95 % 0 mm
03:11 -17.4 °C -17.8 °C 34097 hPa SW 1.3 km/h 6.4 km/h 95 % 0 mm
03:21 -17.4 °C -17.8 °C 34097 hPa SW 4.2 km/h 7.6 km/h 95 % 0 mm
03:26 -17.4 °C -17.8 °C 34097 hPa SW 6.3 km/h 8.9 km/h 95 % 0 mm
03:31 -17.4 °C -17.8 °C 34063.2 hPa SW 6.4 km/h 8.9 km/h 95 % 0 mm
03:36 -17.4 °C -17.8 °C 34063.2 hPa SSW 6.8 km/h 9.3 km/h 95 % 0 mm
03:41 -17.4 °C -17.8 °C 34063.2 hPa SSW 6.8 km/h 10.3 km/h 95 % 0 mm
03:51 -17.4 °C -17.8 °C 34029.3 hPa South 8.2 km/h 15 km/h 95 % 0 mm
03:56 -17.4 °C -17.8 °C 34029.3 hPa SSW 5.6 km/h 12.7 km/h 95 % 0 mm
04:01 -17.4 °C -17.8 °C 34029.3 hPa SW 4.2 km/h 9.3 km/h 95 % 0 mm
04:06 -17.4 °C -17.8 °C 34029.3 hPa SSW 6.4 km/h 10.3 km/h 95 % 0 mm
04:11 -17.3 °C -17.7 °C 34029.3 hPa SW 7.6 km/h 10.3 km/h 95 % 0 mm
04:17 -17.3 °C -17.7 °C 33992.1 hPa SW 5.6 km/h 9.3 km/h 95 % 0 mm
04:22 -17.3 °C -17.7 °C 33992.1 hPa WSW 2.6 km/h 8 km/h 95 % 0 mm
04:25 -17.3 °C -17.7 °C 33992.1 hPa NNW 0.8 km/h 7.6 km/h 95 % 0 mm
04:27 -17.3 °C -17.7 °C 33992.1 hPa South 0.3 km/h 3.4 km/h 95 % 0 mm
04:30 -17.3 °C -17.7 °C 34029.3 hPa SSW 0.3 km/h 5.1 km/h 95 % 0 mm
04:35 -17.4 °C -17.8 °C 34029.3 hPa SSW 0.5 km/h 6.4 km/h 95 % 0 mm
04:41 -17.3 °C -17.7 °C 34029.3 hPa SW 5.5 km/h 8.9 km/h 95 % 0 mm
04:45 -17.3 °C -17.7 °C 34029.3 hPa SW 7.6 km/h 10.3 km/h 95 % 0 mm
04:50 -17.2 °C -17.6 °C 34029.3 hPa SW 7.2 km/h 10.3 km/h 95 % 0 mm
04:54 -17.2 °C -17.6 °C 34029.3 hPa SW 7.6 km/h 10.3 km/h 95 % 0 mm
04:55 -17.1 °C -17.5 °C 34029.3 hPa SW 7.6 km/h 10.3 km/h 95 % 0 mm
05:00 -17 °C -17.4 °C 34029.3 hPa SW 8 km/h 10.3 km/h 95 % 0 mm
05:05 -16.9 °C -17.3 °C 34029.3 hPa SW 7.7 km/h 10.3 km/h 95 % 0 mm
05:10 -16.9 °C -17.3 °C 34029.3 hPa SW 7.7 km/h 10.3 km/h 95 % 0 mm
05:15 -16.8 °C -17.2 °C 34029.3 hPa SW 6.8 km/h 10.3 km/h 96 % 0 mm
05:20 -16.8 °C -17.2 °C 34029.3 hPa SSW 2.9 km/h 9.3 km/h 96 % 0 mm
05:24 -16.8 °C -17.1 °C 34029.3 hPa SSW 2.1 km/h 6.9 km/h 96 % 0 mm
05:25 -16.8 °C -17.1 °C 34029.3 hPa SSW 1.8 km/h 6.9 km/h 96 % 0 mm
05:30 -16.8 °C -17.1 °C 34029.3 hPa SSW 2.3 km/h 6.9 km/h 96 % 0 mm
05:34 -16.7 °C -17.1 °C 34029.3 hPa SW 1.3 km/h 6.4 km/h 96 % 0 mm
05:35 -16.7 °C -17.1 °C 34029.3 hPa West 0.8 km/h 6.4 km/h 96 % 0 mm
05:40 -16.7 °C -17.1 °C 34029.3 hPa Calm     96 % 0 mm
05:43 -16.7 °C -17.1 °C 33992.1 hPa Calm     96 % 0 mm
05:48 -16.7 °C -17.1 °C 33992.1 hPa Calm     96 % 0 mm
05:53 -16.7 °C -17.1 °C 33992.1 hPa Calm     96 % 0 mm
05:58 -16.7 °C -17.1 °C 33992.1 hPa Calm     96 % 0 mm
06:03 -16.7 °C -17.1 °C 33992.1 hPa Calm     96 % 0 mm
06:08 -16.7 °C -17.1 °C 33992.1 hPa Calm     96 % 0 mm
06:13 -16.7 °C -17 °C 33992.1 hPa Calm     96 % 0 mm
06:18 -16.7 °C -17 °C 33992.1 hPa WSW 0.3 km/h 5.6 km/h 96 % 0 mm
06:22 -16.6 °C -16.9 °C 33992.1 hPa WSW 0.3 km/h 5.6 km/h 96 % 0 mm
06:23 -16.6 °C -16.9 °C 33992.1 hPa West 0.3 km/h 5.6 km/h 96 % 0 mm
06:28 -16.5 °C -16.8 °C 33992.1 hPa SW 0.8 km/h 8.9 km/h 96 % 0 mm
06:34 -16.4 °C -16.8 °C 33992.1 hPa South 3.9 km/h 14 km/h 96 % 0 mm
06:39 -16.4 °C -16.7 °C 33992.1 hPa South 4.2 km/h 14 km/h 96 % 0 mm
06:44 -16.2 °C -16.6 °C 33992.1 hPa SW 3.9 km/h 8.9 km/h 96 % 0 mm
06:49 -16.1 °C -16.4 °C 33992.1 hPa WSW 5.6 km/h 15 km/h 96 % 0 mm
06:53 -16.1 °C -16.4 °C 33992.1 hPa West 4.3 km/h 15 km/h 96 % 0 mm
06:58 -16 °C -16.3 °C 33992.1 hPa NW 3.7 km/h 15 km/h 96 % 0 mm
07:03 -15.9 °C -16.3 °C 33992.1 hPa NW 4.3 km/h 15 km/h 96 % 0 mm
07:05 -15.9 °C -16.2 °C 33992.1 hPa NW 5.1 km/h 15 km/h 96 % 0 mm
07:10 -15.8 °C -16.1 °C 33992.1 hPa NW 5.1 km/h 14 km/h 96 % 0 mm
07:20 -15.7 °C -16 °C 33992.1 hPa NW 4.2 km/h 10.3 km/h 96 % 0 mm
07:25 -15.6 °C -15.9 °C 33992.1 hPa NW 1.3 km/h 7.6 km/h 96 % 0 mm
07:30 -15.6 °C -15.9 °C 33992.1 hPa NE 2.3 km/h 6.9 km/h 96 % 0 mm
07:35 -15.5 °C -15.8 °C 33992.1 hPa West 3.4 km/h 9.8 km/h 96 % 0 mm
07:40 -15.4 °C -15.8 °C 33992.1 hPa West 4.3 km/h 15.6 km/h 96 % 0 mm
07:45 -15.3 °C -15.7 °C 33992.1 hPa WSW 8.2 km/h 22.5 km/h 96 % 0 mm
07:50 -15.2 °C -15.5 °C 33992.1 hPa WSW 9.7 km/h 22.5 km/h 96 % 0 mm
07:55 -15.1 °C -15.4 °C 33992.1 hPa West 8.2 km/h 22 km/h 96 % 0 mm
08:01 -15.1 °C -15.4 °C 33992.1 hPa West 6 km/h 22 km/h 96 % 0 mm
08:06 -15 °C -15.3 °C 33992.1 hPa WSW 5.6 km/h 14.5 km/h 96 % 0 mm
08:11 -14.8 °C -15.2 °C 33992.1 hPa WSW 8.5 km/h 23 km/h 96 % 0 mm
08:16 -14.8 °C -15.1 °C 33992.1 hPa WSW 11.1 km/h 26.7 km/h 96 % 0 mm
08:17 -14.8 °C -15.1 °C 33992.1 hPa WSW 11.1 km/h 26.7 km/h 96 % 0 mm
08:22 -14.6 °C -14.9 °C 33992.1 hPa WSW 11.1 km/h 26.7 km/h 96 % 0 mm
08:27 -14.6 °C -14.9 °C 33992.1 hPa WSW 9.3 km/h 16.3 km/h 96 % 0 mm
08:32 -14.6 °C -15.1 °C 33992.1 hPa WSW 6.8 km/h 15 km/h 95 % 0 mm
08:37 -14.6 °C -15.1 °C 33992.1 hPa SW 6 km/h 15 km/h 95 % 0 mm
08:42 -14.6 °C -14.9 °C 33992.1 hPa SW 8.5 km/h 16.3 km/h 95 % 0 mm
08:47 -14.5 °C -15 °C 33992.1 hPa SW 9 km/h 16.3 km/h 94 % 0 mm
08:52 -14.4 °C -14.9 °C 33992.1 hPa SW 9 km/h 16.9 km/h 94 % 0 mm
08:53 -14.4 °C -14.9 °C 33992.1 hPa SW 9 km/h 16.9 km/h 94 % 0 mm
08:57 -14.3 °C -14.9 °C 33992.1 hPa WSW 10.1 km/h 20.3 km/h 93 % 0 mm
09:02 -14.3 °C -14.8 °C 33992.1 hPa WSW 8.2 km/h 20.3 km/h 93 % 0 mm
09:03 -14.3 °C -14.8 °C 33992.1 hPa WSW 8.2 km/h 20.3 km/h 93 % 0 mm
09:08 -14.2 °C -14.8 °C 33992.1 hPa West 6 km/h 10.3 km/h 93 % 0 mm
09:09 -14.2 °C -14.8 °C 33992.1 hPa West 6 km/h 10.3 km/h 93 % 0 mm
09:14 -14.2 °C -14.8 °C 33992.1 hPa WSW 8 km/h 20.3 km/h 92 % 0 mm
09:19 -14.1 °C -14.7 °C 33992.1 hPa WSW 10.9 km/h 28.5 km/h 92 % 0 mm
09:22 -14 °C -14.8 °C 33992.1 hPa WSW 9 km/h 28.5 km/h 91 % 0 mm
09:27 -14 °C -14.8 °C 33992.1 hPa SW 11.4 km/h 28.5 km/h 91 % 0 mm
09:28 -13.9 °C -14.7 °C 33992.1 hPa SW 10.6 km/h 20.9 km/h 91 % 0 mm
09:32 -13.9 °C -14.8 °C 33992.1 hPa SW 10.9 km/h 20.9 km/h 90 % 0 mm
09:37 -13.9 °C -14.8 °C 33992.1 hPa SW 9.3 km/h 19.2 km/h 90 % 0 mm
09:42 -13.9 °C -14.8 °C 34029.3 hPa SW 9 km/h 19.2 km/h 89 % 0 mm
09:48 -13.9 °C -14.8 °C 34029.3 hPa SW 7.6 km/h 15.6 km/h 89 % 0 mm
09:49 -13.8 °C -14.9 °C 34029.3 hPa SW 7.6 km/h 15.6 km/h 88 % 0 mm
09:53 -13.8 °C -14.9 °C 34029.3 hPa SW 6.9 km/h 15.6 km/h 88 % 0 mm
09:58 -13.8 °C -14.9 °C 34029.3 hPa WSW 5.5 km/h 9.8 km/h 87 % 0 mm
10:03 -13.7 °C -14.8 °C 34029.3 hPa WSW 5.1 km/h 14 km/h 87 % 0 mm
10:08 -13.7 °C -14.8 °C 34029.3 hPa WSW 5 km/h 16.3 km/h 87 % 0 mm
10:13 -13.7 °C -14.9 °C 34029.3 hPa West 7.2 km/h 20.3 km/h 86 % 0 mm
10:18 -13.6 °C -14.8 °C 34029.3 hPa West 11.9 km/h 27.7 km/h 86 % 0 mm
10:23 -13.6 °C -14.8 °C 34029.3 hPa West 10.3 km/h 27.7 km/h 86 % 0 mm
10:28 -13.5 °C -14.7 °C 34029.3 hPa WSW 7.2 km/h 15 km/h 86 % 0 mm
10:29 -13.5 °C -14.7 °C 34029.3 hPa WSW 7.2 km/h 15 km/h 86 % 0 mm
10:30 -13.4 °C -14.7 °C 34029.3 hPa WSW 7.2 km/h 15 km/h 86 % 0 mm
10:33 -13.4 °C -14.7 °C 34029.3 hPa WSW 9.3 km/h 20.9 km/h 85 % 0 mm
10:38 -13.3 °C -14.7 °C 34029.3 hPa WSW 9.3 km/h 20.9 km/h 85 % 0 mm
10:43 -13.2 °C -14.6 °C 33992.1 hPa West 6.9 km/h 19.6 km/h 84 % 0 mm
10:45 -13.2 °C -14.6 °C 33992.1 hPa WNW 7.6 km/h 29 km/h 84 % 0 mm
10:50 -13.1 °C -14.5 °C 33992.1 hPa West 9 km/h 29 km/h 84 % 0 mm
10:55 -13 °C -14.4 °C 33992.1 hPa West 8.5 km/h 16.3 km/h 84 % 0 mm
11:01 -12.9 °C -14.4 °C 33992.1 hPa West 10.1 km/h 22.5 km/h 83 % 0 mm
11:06 -12.8 °C -14.3 °C 33992.1 hPa WSW 10.1 km/h 22.5 km/h 83 % 0 mm
11:11 -12.8 °C -14.4 °C 33992.1 hPa West 10.3 km/h 26.7 km/h 82 % 0 mm
11:16 -12.8 °C -14.5 °C 33958.2 hPa WNW 10.1 km/h 26.7 km/h 81 % 0 mm
11:21 -12.8 °C -14.5 °C 33958.2 hPa West 7.2 km/h 18.7 km/h 81 % 0 mm
11:23 -12.8 °C -14.6 °C 33958.2 hPa West 6.9 km/h 11.1 km/h 80 % 0 mm
11:26 -12.7 °C -14.6 °C 33958.2 hPa West 4.3 km/h 9.8 km/h 80 % 0 mm
11:31 -12.6 °C -14.4 °C 33958.2 hPa West 6.4 km/h 24.8 km/h 80 % 0 mm
11:34 -12.4 °C -14.3 °C 33958.2 hPa West 8 km/h 24.8 km/h 80 % 0 mm
11:36 -12.4 °C -14.4 °C 33958.2 hPa West 10.3 km/h 24.8 km/h 79 % 0 mm
11:37 -12.4 °C -14.3 °C 33958.2 hPa West 11.9 km/h 24.8 km/h 79 % 0 mm
11:42 -12.1 °C -14.1 °C 33958.2 hPa West 10.9 km/h 22.5 km/h 78 % 0 mm
11:47 -12 °C -14.1 °C 33958.2 hPa West 11.1 km/h 27.7 km/h 77 % 0 mm
11:48 -12 °C -14.1 °C 33958.2 hPa West 11.6 km/h 27.7 km/h 77 % 0 mm
11:49 -12 °C -14.1 °C 33958.2 hPa WSW 11.9 km/h 27.7 km/h 77 % 0 mm
11:53 -12 °C -14.3 °C 33958.2 hPa West 13.7 km/h 27.7 km/h 76 % 0 mm
11:58 -12 °C -14.3 °C 33958.2 hPa West 11.4 km/h 22.5 km/h 75 % 0 mm
12:03 -11.9 °C -14.4 °C 33958.2 hPa SW 7.7 km/h 22 km/h 74 % 0 mm
12:08 -11.9 °C -14.4 °C 33958.2 hPa SW 7.2 km/h 19.6 km/h 74 % 0 mm
12:09 -11.9 °C -14.4 °C 33958.2 hPa SW 7.2 km/h 19.6 km/h 74 % 0 mm
12:14 -11.9 °C -14.5 °C 33958.2 hPa West 8 km/h 13.7 km/h 73 % 0 mm
12:17 -11.9 °C -14.5 °C 33958.2 hPa WSW 8.2 km/h 13.7 km/h 73 % 0 mm
12:19 -11.9 °C -14.5 °C 33958.2 hPa WSW 8.2 km/h 16.3 km/h 73 % 0 mm
12:24 -11.9 °C -14.6 °C 33958.2 hPa SW 8.5 km/h 16.9 km/h 72 % 0 mm
12:29 -11.9 °C -14.6 °C 33958.2 hPa WSW 8.9 km/h 19.6 km/h 72 % 0 mm
12:30 -11.9 °C -14.6 °C 33958.2 hPa WSW 8.2 km/h 19.6 km/h 72 % 0 mm
12:35 -11.9 °C -14.6 °C 33958.2 hPa SW 8.9 km/h 20.3 km/h 72 % 0 mm
12:40 -11.9 °C -14.6 °C 33958.2 hPa SW 9.8 km/h 22 km/h 72 % 0 mm
12:44 -11.9 °C -14.8 °C 33958.2 hPa SW 9.8 km/h 22 km/h 71 % 0 mm
12:49 -11.9 °C -14.8 °C 33958.2 hPa SW 10.6 km/h 19.2 km/h 71 % 0 mm
12:54 -11.9 °C -14.8 °C 33958.2 hPa SW 10.3 km/h 20.9 km/h 71 % 0 mm
12:58 -12 °C -14.8 °C 33958.2 hPa SW 9.7 km/h 20.9 km/h 71 % 0 mm
13:03 -12 °C -14.8 °C 33958.2 hPa SW 10.3 km/h 22.5 km/h 71 % 0 mm
13:08 -12 °C -14.9 °C 33958.2 hPa SW 11.6 km/h 22.5 km/h 70 % 0 mm
13:09 -12 °C -14.9 °C 33958.2 hPa SW 11.6 km/h 22.5 km/h 70 % 0 mm
13:14 -12 °C -14.9 °C 33958.2 hPa SSW 12.2 km/h 22 km/h 70 % 0 mm
13:19 -11.9 °C -14.8 °C 33958.2 hPa SW 9.3 km/h 22 km/h 70 % 0 mm
13:24 -11.9 °C -14.8 °C 33958.2 hPa WSW 8.2 km/h 20.3 km/h 70 % 0 mm
13:29 -11.8 °C -14.8 °C 33958.2 hPa West 12.9 km/h 39.4 km/h 70 % 0 mm
13:33 -11.8 °C -14.9 °C 33958.2 hPa West 15 km/h 39.4 km/h 69 % 0 mm
13:34 -11.8 °C -14.9 °C 33958.2 hPa West 14.8 km/h 39.4 km/h 69 % 0 mm
13:39 -11.8 °C -14.9 °C 33958.2 hPa West 8.9 km/h 22 km/h 69 % 0 mm
13:44 -11.8 °C -14.8 °C 33958.2 hPa West 7.6 km/h 14 km/h 69 % 0 mm
13:50 -11.8 °C -14.8 °C 33958.2 hPa West 8.2 km/h 19.6 km/h 69 % 0 mm
13:55 -11.8 °C -14.8 °C 33958.2 hPa West 7.6 km/h 19.6 km/h 69 % 0 mm
13:56 -11.8 °C -14.8 °C 33958.2 hPa West 7.6 km/h 19.6 km/h 69 % 0 mm
14:01 -11.7 °C -14.8 °C 33958.2 hPa WNW 8 km/h 20.3 km/h 69 % 0 mm
14:02 -11.7 °C -14.8 °C 33958.2 hPa WNW 8.2 km/h 20.3 km/h 69 % 0 mm
14:06 -11.6 °C -14.8 °C 33958.2 hPa WNW 8 km/h 20.3 km/h 68 % 0 mm
14:11 -11.5 °C -14.7 °C 33958.2 hPa WNW 6.8 km/h 19.6 km/h 68 % 0 mm
14:16 -11.4 °C -14.6 °C 33924.3 hPa West 8 km/h 22.5 km/h 68 % 0 mm
14:21 -11.4 °C -14.7 °C 33924.3 hPa WSW 8.9 km/h 22.5 km/h 67 % 0 mm
14:26 -11.4 °C -14.7 °C 33924.3 hPa WSW 8 km/h 22.5 km/h 67 % 0 mm
14:30 -11.4 °C -14.7 °C 33958.2 hPa SW 8.2 km/h 15 km/h 67 % 0 mm
14:35 -11.4 °C -14.7 °C 33958.2 hPa WSW 7.7 km/h 15 km/h 67 % 0 mm
14:40 -11.4 °C -14.7 °C 33958.2 hPa West 8 km/h 24.8 km/h 67 % 0 mm
14:45 -11.3 °C -14.8 °C 33924.3 hPa West 6 km/h 13.7 km/h 66 % 0 mm
14:50 -11.3 °C -14.8 °C 33924.3 hPa WSW 5.6 km/h 12.2 km/h 66 % 0 mm
14:55 -11.4 °C -14.8 °C 33924.3 hPa SW 7.2 km/h 14.5 km/h 66 % 0 mm
15:00 -11.5 °C -14.8 °C 33958.2 hPa SSW 9.8 km/h 15.6 km/h 67 % 0 mm
15:05 -11.6 °C -14.8 °C 33958.2 hPa SW 8 km/h 15.6 km/h 67 % 0 mm
15:10 -11.6 °C -14.9 °C 33958.2 hPa SW 4.3 km/h 15 km/h 67 % 0 mm
15:15 -11.7 °C -14.9 °C 33958.2 hPa SW 5.6 km/h 11.1 km/h 67 % 0 mm
15:20 -11.7 °C -14.9 °C 33958.2 hPa SSW 8 km/h 12.2 km/h 68 % 0 mm
15:22 -11.7 °C -14.9 °C 33958.2 hPa South 8.2 km/h 12.2 km/h 68 % 0 mm
15:27 -11.8 °C -14.9 °C 33958.2 hPa South 8.5 km/h 15 km/h 68 % 0 mm
15:32 -11.9 °C -15.1 °C 33958.2 hPa South 6.9 km/h 15 km/h 68 % 0 mm
15:37 -12.1 °C -15.1 °C 33958.2 hPa South 5.5 km/h 11.1 km/h 69 % 0 mm
15:42 -12.2 °C -15.2 °C 33958.2 hPa SSW 3.9 km/h 9.3 km/h 69 % 0 mm
15:47 -12.3 °C -15.2 °C 33924.3 hPa West 2.6 km/h 6.9 km/h 70 % 0 mm
15:50 -12.4 °C -15.3 °C 33924.3 hPa WSW 2.9 km/h 9.8 km/h 70 % 0 mm
15:55 -12.6 °C -15.3 °C 33924.3 hPa SW 3.4 km/h 9.8 km/h 71 % 0 mm
16:00 -12.7 °C -15.5 °C 33924.3 hPa West 2.6 km/h 7.6 km/h 71 % 0 mm
16:03 -12.8 °C -15.6 °C 33924.3 hPa NW 1 km/h 5.6 km/h 71 % 0 mm
16:05 -12.8 °C -15.5 °C 33924.3 hPa NW 0.8 km/h 5.6 km/h 72 % 0 mm
16:10 -12.9 °C -15.6 °C 33924.3 hPa Calm     72 % 0 mm
16:15 -13 °C -15.5 °C 33958.2 hPa WSW 0.3 km/h 6.4 km/h 73 % 0 mm
16:20 -13.1 °C -15.7 °C 33958.2 hPa WSW 0.8 km/h 6.4 km/h 73 % 0 mm
16:25 -13.2 °C -15.7 °C 33958.2 hPa WSW 1.3 km/h 6.9 km/h 74 % 0 mm
16:27 -13.3 °C -15.7 °C 33958.2 hPa WSW 1.8 km/h 6.9 km/h 74 % 0 mm
16:32 -13.4 °C -15.7 °C 33958.2 hPa WSW 1 km/h 5.1 km/h 75 % 0 mm
16:37 -13.4 °C -15.7 °C 33958.2 hPa NNW 0.3 km/h 4.2 km/h 75 % 0 mm
16:42 -13.6 °C -15.9 °C 33958.2 hPa NW 0.8 km/h 6.9 km/h 75 % 0 mm
16:47 -13.6 °C -15.8 °C 33958.2 hPa NW 1.8 km/h 6.9 km/h 76 % 0 mm
16:52 -13.7 °C -15.9 °C 33958.2 hPa WNW 1.3 km/h 6.4 km/h 76 % 0 mm
16:55 -13.7 °C -15.8 °C 33958.2 hPa West 0.5 km/h 5.6 km/h 77 % 0 mm
16:58 -13.7 °C -15.8 °C 33924.3 hPa Calm     77 % 0 mm
17:03 -13.8 °C -15.9 °C 33924.3 hPa Calm     77 % 0 mm
17:08 -13.9 °C -15.9 °C 33924.3 hPa Calm     78 % 0 mm
17:14 -13.9 °C -15.8 °C 33924.3 hPa Calm     79 % 0 mm
17:19 -13.9 °C -15.8 °C 33924.3 hPa Calm     79 % 0 mm
17:24 -14 °C -15.8 °C 33924.3 hPa Calm     80 % 0 mm
17:29 -14.1 °C -15.8 °C 33924.3 hPa Calm     80 % 0 mm
17:34 -14.1 °C -15.7 °C 33924.3 hPa Calm     81 % 0 mm
17:39 -14 °C -15.7 °C 33924.3 hPa Calm     81 % 0 mm
17:44 -14.1 °C -15.7 °C 33924.3 hPa Calm     82 % 0 mm
17:45 -14.1 °C -15.7 °C 33924.3 hPa Calm     82 % 0 mm
17:50 -14.1 °C -15.7 °C 33924.3 hPa Calm     82 % 0 mm
17:55 -14.2 °C -15.7 °C 33924.3 hPa Calm     82 % 0 mm
17:59 -14.2 °C -15.7 °C 33958.2 hPa WSW 0.3 km/h 10.3 km/h 83 % 0 mm
18:04 -14.1 °C -15.6 °C 33958.2 hPa WSW 1.8 km/h 10.3 km/h 83 % 0 mm
18:09 -14.2 °C -15.7 °C 33958.2 hPa West 1.8 km/h 10.3 km/h 83 % 0 mm
18:14 -14.2 °C -15.6 °C 33958.2 hPa Calm     84 % 0 mm
18:18 -14.2 °C -15.6 °C 33958.2 hPa Calm     84 % 0 mm
18:22 -14.2 °C -15.6 °C 33958.2 hPa WNW 0.3 km/h 5.6 km/h 84 % 0 mm
18:32 -14.2 °C -15.4 °C 33958.2 hPa WNW 1.8 km/h 8.9 km/h 85 % 0 mm
18:37 -14.2 °C -15.5 °C 33958.2 hPa Calm     85 % 0 mm
18:42 -14.3 °C -15.6 °C 33958.2 hPa Calm     85 % 0 mm
18:47 -14.3 °C -15.6 °C 33958.2 hPa NW 0.8 km/h 5.1 km/h 85 % 0 mm
18:48 -14.3 °C -15.6 °C 33958.2 hPa NW 0.8 km/h 5.1 km/h 85 % 0 mm
18:52 -14.3 °C -15.6 °C 33958.2 hPa NW 0.8 km/h 5.1 km/h 85 % 0 mm
18:57 -14.4 °C -15.6 °C 33958.2 hPa Calm   2.9 km/h 86 % 0 mm
19:02 -14.4 °C -15.6 °C 33958.2 hPa Calm   2.9 km/h 86 % 0 mm
19:07 -14.4 °C -15.6 °C 33958.2 hPa ENE 1.3 km/h 6.4 km/h 86 % 0 mm
19:12 -14.4 °C -15.6 °C 33958.2 hPa ENE 1.3 km/h 6.4 km/h 86 % 0 mm
19:17 -14.4 °C -15.5 °C 33958.2 hPa Calm     87 % 0 mm
19:22 -14.4 °C -15.5 °C 33958.2 hPa WNW 2.1 km/h 6.9 km/h 87 % 0 mm
19:24 -14.4 °C -15.5 °C 33958.2 hPa WNW 2.6 km/h 6.9 km/h 87 % 0 mm
19:28 -14.4 °C -15.5 °C 33958.2 hPa WNW 3.4 km/h 6.9 km/h 87 % 0 mm
19:29 -14.4 °C -15.5 °C 33958.2 hPa WNW 2.6 km/h 6.4 km/h 87 % 0 mm
19:34 -14.4 °C -15.5 °C 33958.2 hPa SW 1 km/h 7.6 km/h 87 % 0 mm
19:39 -14.4 °C -15.5 °C 33958.2 hPa SW 1 km/h 7.6 km/h 87 % 0 mm
19:44 -14.4 °C -15.5 °C 33958.2 hPa Calm     87 % 0 mm
19:49 -14.4 °C -15.5 °C 33958.2 hPa Calm     87 % 0 mm
19:54 -14.4 °C -15.5 °C 33958.2 hPa Calm     87 % 0 mm
19:59 -14.4 °C -15.5 °C 33958.2 hPa Calm     87 % 0 mm
20:04 -14.4 °C -15.4 °C 33958.2 hPa North 0.8 km/h 5.1 km/h 88 % 0 mm
20:09 -14.4 °C -15.4 °C 33958.2 hPa North 0.5 km/h 5.1 km/h 88 % 0 mm
20:11 -14.4 °C -15.4 °C 33958.2 hPa North 0.5 km/h 5.1 km/h 88 % 0 mm
20:16 -14.4 °C -15.4 °C 33958.2 hPa WNW 0.8 km/h 8 km/h 88 % 0 mm
20:21 -14.4 °C -15.4 °C 33958.2 hPa WSW 1.8 km/h 8 km/h 88 % 0 mm
20:26 -14.4 °C -15.4 °C 33958.2 hPa NW 4.7 km/h 9.3 km/h 89 % 0 mm
20:31 -14.4 °C -15.4 °C 33958.2 hPa NW 4.2 km/h 9.3 km/h 89 % 0 mm
20:36 -14.4 °C -15.4 °C 33958.2 hPa NW 1.3 km/h 5.6 km/h 89 % 0 mm
20:41 -14.4 °C -15.4 °C 33958.2 hPa Calm     89 % 0 mm
20:46 -14.5 °C -15.3 °C 33924.3 hPa SSE 2.1 km/h 6.9 km/h 90 % 0 mm
20:48 -14.5 °C -15.3 °C 33924.3 hPa SSW 3.7 km/h 9.3 km/h 90 % 0 mm
20:51 -14.5 °C -15.3 °C 33924.3 hPa WNW 5 km/h 9.3 km/h 90 % 0 mm
20:56 -14.5 °C -15.3 °C 33924.3 hPa NNW 2.9 km/h 9.3 km/h 90 % 0 mm
21:01 -14.4 °C -15.3 °C 33924.3 hPa NNE 0.8 km/h 8.9 km/h 90 % 0 mm
21:06 -14.4 °C -15.3 °C 33924.3 hPa NNW 1.6 km/h 8.9 km/h 90 % 0 mm
21:07 -14.4 °C -15.3 °C 33924.3 hPa NNW 1.8 km/h 8.9 km/h 90 % 0 mm
21:12 -14.3 °C -15.2 °C 33924.3 hPa NW 2.1 km/h 7.6 km/h 90 % 0 mm
21:17 -14.3 °C -15.1 °C 33924.3 hPa NNW 1.6 km/h 9.8 km/h 91 % 0 mm
21:22 -14.3 °C -15.1 °C 33924.3 hPa NW 2.1 km/h 9.8 km/h 91 % 0 mm
21:27 -14.3 °C -15.1 °C 33924.3 hPa West 2.9 km/h 11.1 km/h 91 % 0 mm
21:32 -14.2 °C -14.9 °C 33924.3 hPa NW 4.7 km/h 11.1 km/h 91 % 0 mm
21:37 -14.2 °C -14.9 °C 33924.3 hPa ESE 7.2 km/h 16.3 km/h 91 % 0 mm
21:42 -14.2 °C -14.9 °C 33924.3 hPa SE 7.6 km/h 16.3 km/h 91 % 0 mm
21:47 -14.2 °C -14.8 °C 33890.5 hPa South 6.8 km/h 15.6 km/h 92 % 0 mm
21:52 -14.2 °C -14.8 °C 33890.5 hPa SE 5.5 km/h 9.8 km/h 92 % 0 mm
21:57 -14.2 °C -14.8 °C 33890.5 hPa NNW 5.5 km/h 9.8 km/h 92 % 0 mm
22:02 -14.2 °C -14.8 °C 33890.5 hPa WNW 5.1 km/h 9.8 km/h 92 % 0 mm
22:07 -14.2 °C -14.8 °C 33890.5 hPa SW 3.7 km/h 8.9 km/h 92 % 0 mm
22:12 -14.2 °C -14.9 °C 33890.5 hPa SSE 2.1 km/h 6.9 km/h 92 % 0 mm
22:17 -14.3 °C -14.9 °C 33856.6 hPa South 0.5 km/h 5.6 km/h 92 % 0 mm
22:20 -14.3 °C -14.9 °C 33856.6 hPa Calm     92 % 0 mm
22:22 -14.3 °C -14.9 °C 33856.6 hPa Calm     92 % 0 mm
22:23 -14.3 °C -15 °C 33856.6 hPa Calm     92 % 0 mm
22:27 -14.4 °C -15.1 °C 33856.6 hPa WSW 0.8 km/h 5.1 km/h 92 % 0 mm
22:32 -14.4 °C -15.1 °C 33924.3 hPa WSW 0.5 km/h 5.1 km/h 92 % 0 mm
22:37 -14.6 °C -15.2 °C 33924.3 hPa Calm     93 % 0 mm
22:42 -14.7 °C -15.2 °C 33924.3 hPa Calm     93 % 0 mm
22:47 -14.7 °C -15.4 °C 33890.5 hPa SW 1.3 km/h 6.9 km/h 92 % 0 mm
22:52 -14.8 °C -15.5 °C 33890.5 hPa SW 2.3 km/h 6.9 km/h 92 % 0 mm
22:57 -14.9 °C -15.6 °C 33890.5 hPa SSW 1 km/h 6.4 km/h 92 % 0 mm
23:02 -15 °C -15.7 °C 33890.5 hPa Calm     92 % 0 mm
23:07 -15 °C -15.7 °C 33890.5 hPa Calm     92 % 0 mm
23:12 -15.2 °C -15.7 °C 33890.5 hPa Calm     93 % 0 mm
23:17 -15.2 °C -15.8 °C 33856.6 hPa Calm     93 % 0 mm
23:22 -15.2 °C -15.8 °C 33856.6 hPa Calm     93 % 0 mm
23:27 -15.3 °C -15.9 °C 33856.6 hPa Calm     93 % 0 mm
23:32 -15.3 °C -16 °C 33856.6 hPa Calm     92 % 0 mm
23:37 -15.4 °C -16.1 °C 33856.6 hPa Calm     92 % 0 mm
23:42 -15.5 °C -16.2 °C 33856.6 hPa Calm     92 % 0 mm
23:47 -15.6 °C -16.2 °C 33856.6 hPa Calm     92 % 0 mm
23:52 -15.6 °C -16.2 °C 33856.6 hPa Calm     93 % 0 mm
23:57 -15.7 °C -16.2 °C 33856.6 hPa Calm     93 % 7.62 mm
Vremenska postaja Senovo
Podatki zbrani iz Weather Underground - 3 mb

Script developed by  Jim McMurry - jmcmurry@mwt.net Adapted for the template by  Wim van der Kuil - Leuven-Template.eu

Vremenski podatki so objavljeni na:

European Weather Network

WeatherCloud

Weather Underground

AWEKAS

HAMweather, WeatherForYou, PWS Weather

MapView

Geostik

Slovenia weather network

Oprema, ki se uporablja:

Vremenski program
Cumulus

Vremenski server
Asus

Cumulus

Asus